createdAt,value
2022-12-13T08:26:29.282Z,17.33
2022-12-13T08:29:35.915Z,19.02
2022-12-13T08:55:32.142Z,21.60
2022-12-13T08:58:35.004Z,21.30
2022-12-13T09:13:01.786Z,17.95
2022-12-13T09:26:05.984Z,18.05
2022-12-13T09:38:17.447Z,18.15
2022-12-13T09:50:03.939Z,18.13
2022-12-13T10:01:48.742Z,17.52
2022-12-13T10:13:02.498Z,16.85
2022-12-13T10:16:10.236Z,16.15
2022-12-13T10:25:50.939Z,16.67
2022-12-13T10:29:03.840Z,17.10
2022-12-13T10:32:13.601Z,18.40
2022-12-13T10:35:27.914Z,17.70
2022-12-13T10:38:32.520Z,17.40
2022-12-13T10:41:38.807Z,17.20
2022-12-13T10:44:41.575Z,18.77
2022-12-13T10:47:45.317Z,17.80
2022-12-13T10:50:59.539Z,16.90
2022-12-13T10:54:02.212Z,16.58
2022-12-13T10:57:06.729Z,16.55
2022-12-13T11:00:32.341Z,15.65
2022-12-13T11:03:35.859Z,16.80
2022-12-13T11:06:43.426Z,16.83
2022-12-13T11:09:52.449Z,15.13
2022-12-13T11:13:03.686Z,14.85
2022-12-13T11:16:29.063Z,15.38
2022-12-13T11:19:38.141Z,13.07
2022-12-13T11:22:40.721Z,13.15
2022-12-13T11:25:46.109Z,14.90
2022-12-13T11:29:09.358Z,11.88
2022-12-13T11:32:22.797Z,13.60
2022-12-13T11:35:33.745Z,13.88
2022-12-13T11:38:52.868Z,11.95
2022-12-13T11:42:05.265Z,11.93
2022-12-13T11:45:22.243Z,10.52
2022-12-13T11:48:33.200Z,11.68
2022-12-13T11:51:43.812Z,13.02
2022-12-13T11:54:54.642Z,11.23
2022-12-13T12:02:42.659Z,10.32
2022-12-13T12:05:50.028Z,10.32
2022-12-13T12:09:01.553Z,10.60
2022-12-13T12:12:12.083Z,10.43
2022-12-13T12:15:26.719Z,11.43
2022-12-13T12:23:23.833Z,9.75
2022-12-13T12:58:55.438Z,13.25
2022-12-13T13:21:30.407Z,14.27
